sensor_id;sensor_type;location;lat;lon;timestamp;temperature;humidity
8067;DHT22;4076;48.076;9.118;2023-07-31T00:01:19;11.70;99.90
8067;DHT22;4076;48.076;9.118;2023-07-31T00:03:45;11.70;99.90
8067;DHT22;4076;48.076;9.118;2023-07-31T00:06:12;11.80;99.90
8067;DHT22;4076;48.076;9.118;2023-07-31T00:08:37;11.80;99.90
8067;DHT22;4076;48.076;9.118;2023-07-31T00:11:03;11.80;99.90
8067;DHT22;4076;48.076;9.118;2023-07-31T00:13:28;11.80;99.90
8067;DHT22;4076;48.076;9.118;2023-07-31T00:15:54;11.80;99.90
8067;DHT22;4076;48.076;9.118;2023-07-31T00:18:19;11.70;99.90
8067;DHT22;4076;48.076;9.118;2023-07-31T00:20:45;11.70;99.90
8067;DHT22;4076;48.076;9.118;2023-07-31T00:23:11;11.60;99.90
8067;DHT22;4076;48.076;9.118;2023-07-31T00:25:36;11.50;99.90
8067;DHT22;4076;48.076;9.118;2023-07-31T00:28:02;11.40;99.90
8067;DHT22;4076;48.076;9.118;2023-07-31T00:30:27;11.40;99.90
8067;DHT22;4076;48.076;9.118;2023-07-31T00:32:53;11.30;99.90
8067;DHT22;4076;48.076;9.118;2023-07-31T00:35:18;11.30;99.90
8067;DHT22;4076;48.076;9.118;2023-07-31T00:37:44;11.30;99.90
8067;DHT22;4076;48.076;9.118;2023-07-31T00:40:09;11.20;99.90
8067;DHT22;4076;48.076;9.118;2023-07-31T00:42:35;11.20;99.90
8067;DHT22;4076;48.076;9.118;2023-07-31T00:45:01;11.20;99.90
8067;DHT22;4076;48.076;9.118;2023-07-31T00:47:26;11.10;99.90
8067;DHT22;4076;48.076;9.118;2023-07-31T00:49:52;11.10;99.90
8067;DHT22;4076;48.076;9.118;2023-07-31T00:52:18;11.10;99.90
8067;DHT22;4076;48.076;9.118;2023-07-31T00:54:44;11.10;99.90
8067;DHT22;4076;48.076;9.118;2023-07-31T00:57:10;11.10;99.90
8067;DHT22;4076;48.076;9.118;2023-07-31T00:59:35;11.10;99.90
8067;DHT22;4076;48.076;9.118;2023-07-31T01:02:01;11.00;99.90
8067;DHT22;4076;48.076;9.118;2023-07-31T01:04:27;11.00;99.90
8067;DHT22;4076;48.076;9.118;2023-07-31T01:09:37;10.90;99.90
8067;DHT22;4076;48.076;9.118;2023-07-31T01:12:07;10.90;99.90
8067;DHT22;4076;48.076;9.118;2023-07-31T01:14:33;10.90;99.90
8067;DHT22;4076;48.076;9.118;2023-07-31T01:16:58;10.90;99.90
8067;DHT22;4076;48.076;9.118;2023-07-31T01:19:25;10.90;99.90
8067;DHT22;4076;48.076;9.118;2023-07-31T01:22:11;10.90;99.90
8067;DHT22;4076;48.076;9.118;2023-07-31T01:27:30;10.90;99.90
8067;DHT22;4076;48.076;9.118;2023-07-31T01:30:05;10.90;99.90
8067;DHT22;4076;48.076;9.118;2023-07-31T01:32:38;10.90;99.90
8067;DHT22;4076;48.076;9.118;2023-07-31T01:35:04;10.90;99.90
8067;DHT22;4076;48.076;9.118;2023-07-31T01:37:30;10.90;99.90
8067;DHT22;4076;48.076;9.118;2023-07-31T01:39:56;10.90;99.90
8067;DHT22;4076;48.076;9.118;2023-07-31T01:42:21;10.90;99.90
8067;DHT22;4076;48.076;9.118;2023-07-31T01:44:47;10.80;99.90
8067;DHT22;4076;48.076;9.118;2023-07-31T01:47:12;10.70;99.90
8067;DHT22;4076;48.076;9.118;2023-07-31T01:49:38;10.70;99.90
8067;DHT22;4076;48.076;9.118;2023-07-31T01:52:04;10.60;99.90
8067;DHT22;4076;48.076;9.118;2023-07-31T01:54:30;10.60;99.90
8067;DHT22;4076;48.076;9.118;2023-07-31T01:56:55;10.60;99.90
8067;DHT22;4076;48.076;9.118;2023-07-31T01:59:21;10.50;99.90
8067;DHT22;4076;48.076;9.118;2023-07-31T02:01:46;10.50;99.90
8067;DHT22;4076;48.076;9.118;2023-07-31T02:04:12;10.60;99.90
8067;DHT22;4076;48.076;9.118;2023-07-31T02:06:38;10.50;99.90
8067;DHT22;4076;48.076;9.118;2023-07-31T02:09:04;10.50;99.90
8067;DHT22;4076;48.076;9.118;2023-07-31T02:11:30;10.50;99.90
8067;DHT22;4076;48.076;9.118;2023-07-31T02:13:55;10.50;99.90
8067;DHT22;4076;48.076;9.118;2023-07-31T02:16:21;10.40;99.90
8067;DHT22;4076;48.076;9.118;2023-07-31T02:18:46;10.40;99.90
8067;DHT22;4076;48.076;9.118;2023-07-31T02:21:12;10.40;99.90
8067;DHT22;4076;48.076;9.118;2023-07-31T02:23:37;10.50;99.90
8067;DHT22;4076;48.076;9.118;2023-07-31T02:26:03;10.50;99.90
8067;DHT22;4076;48.076;9.118;2023-07-31T02:28:29;10.50;99.90
8067;DHT22;4076;48.076;9.118;2023-07-31T02:30:55;10.50;99.90
8067;DHT22;4076;48.076;9.118;2023-07-31T02:33:20;10.40;99.90
8067;DHT22;4076;48.076;9.118;2023-07-31T02:35:46;10.40;99.90
8067;DHT22;4076;48.076;9.118;2023-07-31T02:38:11;10.30;99.90
8067;DHT22;4076;48.076;9.118;2023-07-31T02:40:37;10.20;99.90
8067;DHT22;4076;48.076;9.118;2023-07-31T02:43:02;10.20;99.90
8067;DHT22;4076;48.076;9.118;2023-07-31T02:45:28;10.20;99.90
8067;DHT22;4076;48.076;9.118;2023-07-31T02:47:53;10.10;99.90
8067;DHT22;4076;48.076;9.118;2023-07-31T02:50:19;10.10;99.90
8067;DHT22;4076;48.076;9.118;2023-07-31T02:52:45;10.10;99.90
8067;DHT22;4076;48.076;9.118;2023-07-31T02:55:10;10.10;99.90
8067;DHT22;4076;48.076;9.118;2023-07-31T02:57:36;10.10;99.90
8067;DHT22;4076;48.076;9.118;2023-07-31T03:00:01;10.10;99.90
8067;DHT22;4076;48.076;9.118;2023-07-31T03:02:31;10.00;99.90
8067;DHT22;4076;48.076;9.118;2023-07-31T03:04:56;10.00;99.90
8067;DHT22;4076;48.076;9.118;2023-07-31T03:07:21;9.90;99.90
8067;DHT22;4076;48.076;9.118;2023-07-31T03:09:47;9.90;99.90
8067;DHT22;4076;48.076;9.118;2023-07-31T03:12:13;9.90;99.90
8067;DHT22;4076;48.076;9.118;2023-07-31T03:14:38;9.90;99.90
8067;DHT22;4076;48.076;9.118;2023-07-31T03:17:04;9.90;99.90
8067;DHT22;4076;48.076;9.118;2023-07-31T03:19:33;9.90;99.90
8067;DHT22;4076;48.076;9.118;2023-07-31T03:21:59;9.90;99.90
8067;DHT22;4076;48.076;9.118;2023-07-31T03:24:25;9.80;99.90
8067;DHT22;4076;48.076;9.118;2023-07-31T03:26:51;9.80;99.90
8067;DHT22;4076;48.076;9.118;2023-07-31T03:29:16;9.80;99.90
8067;DHT22;4076;48.076;9.118;2023-07-31T03:31:42;9.80;99.90
8067;DHT22;4076;48.076;9.118;2023-07-31T03:34:07;9.70;99.90
8067;DHT22;4076;48.076;9.118;2023-07-31T03:36:33;9.80;99.90
8067;DHT22;4076;48.076;9.118;2023-07-31T03:38:58;9.80;99.90
8067;DHT22;4076;48.076;9.118;2023-07-31T03:41:24;9.70;99.90
8067;DHT22;4076;48.076;9.118;2023-07-31T03:43:50;9.70;99.90
8067;DHT22;4076;48.076;9.118;2023-07-31T03:46:21;9.60;99.90
8067;DHT22;4076;48.076;9.118;2023-07-31T03:48:47;9.60;99.90
8067;DHT22;4076;48.076;9.118;2023-07-31T03:51:13;9.60;99.90
8067;DHT22;4076;48.076;9.118;2023-07-31T03:53:38;9.60;99.90
8067;DHT22;4076;48.076;9.118;2023-07-31T03:56:04;9.60;99.90
8067;DHT22;4076;48.076;9.118;2023-07-31T03:58:30;9.50;99.90
8067;DHT22;4076;48.076;9.118;2023-07-31T04:00:55;9.60;99.90
8067;DHT22;4076;48.076;9.118;2023-07-31T04:03:21;9.50;99.90
8067;DHT22;4076;48.076;9.118;2023-07-31T04:05:46;9.60;99.90
8067;DHT22;4076;48.076;9.118;2023-07-31T04:08:12;9.60;99.90
8067;DHT22;4076;48.076;9.118;2023-07-31T04:10:37;9.60;99.90
8067;DHT22;4076;48.076;9.118;2023-07-31T04:13:03;9.60;99.90
8067;DHT22;4076;48.076;9.118;2023-07-31T04:15:28;9.60;99.90
8067;DHT22;4076;48.076;9.118;2023-07-31T04:17:54;9.70;99.90
8067;DHT22;4076;48.076;9.118;2023-07-31T04:20:20;9.70;99.90
8067;DHT22;4076;48.076;9.118;2023-07-31T04:22:45;9.70;99.90
8067;DHT22;4076;48.076;9.118;2023-07-31T04:25:11;9.80;99.90
8067;DHT22;4076;48.076;9.118;2023-07-31T04:27:36;9.80;99.90
8067;DHT22;4076;48.076;9.118;2023-07-31T04:30:02;9.90;99.90
8067;DHT22;4076;48.076;9.118;2023-07-31T04:32:28;10.00;99.90
8067;DHT22;4076;48.076;9.118;2023-07-31T04:34:55;10.00;99.90
8067;DHT22;4076;48.076;9.118;2023-07-31T04:37:20;10.10;99.90
8067;DHT22;4076;48.076;9.118;2023-07-31T04:39:46;10.10;99.90
8067;DHT22;4076;48.076;9.118;2023-07-31T04:42:12;10.20;99.90
8067;DHT22;4076;48.076;9.118;2023-07-31T04:44:37;10.30;99.90
8067;DHT22;4076;48.076;9.118;2023-07-31T04:47:03;10.40;99.90
8067;DHT22;4076;48.076;9.118;2023-07-31T04:49:29;10.40;99.90
8067;DHT22;4076;48.076;9.118;2023-07-31T04:51:54;10.50;99.90
8067;DHT22;4076;48.076;9.118;2023-07-31T04:54:20;10.50;99.90
8067;DHT22;4076;48.076;9.118;2023-07-31T04:56:45;10.60;99.90
8067;DHT22;4076;48.076;9.118;2023-07-31T04:59:11;10.70;99.90
8067;DHT22;4076;48.076;9.118;2023-07-31T05:01:36;10.80;99.90
8067;DHT22;4076;48.076;9.118;2023-07-31T05:04:02;11.00;99.90
8067;DHT22;4076;48.076;9.118;2023-07-31T05:06:27;11.10;99.90
8067;DHT22;4076;48.076;9.118;2023-07-31T05:08:53;11.20;99.90
8067;DHT22;4076;48.076;9.118;2023-07-31T05:11:19;11.40;99.90
8067;DHT22;4076;48.076;9.118;2023-07-31T05:13:44;11.60;99.90
8067;DHT22;4076;48.076;9.118;2023-07-31T05:16:10;11.80;99.90
8067;DHT22;4076;48.076;9.118;2023-07-31T05:18:35;12.00;99.90
8067;DHT22;4076;48.076;9.118;2023-07-31T05:21:01;12.10;99.90
8067;DHT22;4076;48.076;9.118;2023-07-31T05:23:26;12.10;99.90
8067;DHT22;4076;48.076;9.118;2023-07-31T05:25:52;12.20;99.90
8067;DHT22;4076;48.076;9.118;2023-07-31T05:28:17;12.40;99.90
8067;DHT22;4076;48.076;9.118;2023-07-31T05:30:43;12.60;99.90
8067;DHT22;4076;48.076;9.118;2023-07-31T05:33:08;12.70;99.90
8067;DHT22;4076;48.076;9.118;2023-07-31T05:35:34;12.80;99.90
8067;DHT22;4076;48.076;9.118;2023-07-31T05:37:59;12.90;99.90
8067;DHT22;4076;48.076;9.118;2023-07-31T05:40:25;12.90;99.90
8067;DHT22;4076;48.076;9.118;2023-07-31T05:42:50;12.90;99.90
8067;DHT22;4076;48.076;9.118;2023-07-31T05:45:16;13.00;99.90
8067;DHT22;4076;48.076;9.118;2023-07-31T05:47:42;13.00;99.90
8067;DHT22;4076;48.076;9.118;2023-07-31T05:50:07;13.00;99.90
8067;DHT22;4076;48.076;9.118;2023-07-31T05:52:33;13.00;99.90
8067;DHT22;4076;48.076;9.118;2023-07-31T05:54:58;13.10;99.90
8067;DHT22;4076;48.076;9.118;2023-07-31T05:57:24;13.20;99.90
8067;DHT22;4076;48.076;9.118;2023-07-31T05:59:49;13.10;99.90
8067;DHT22;4076;48.076;9.118;2023-07-31T06:02:15;13.10;99.90
8067;DHT22;4076;48.076;9.118;2023-07-31T06:04:41;13.00;99.90
8067;DHT22;4076;48.076;9.118;2023-07-31T06:07:06;13.00;99.90
8067;DHT22;4076;48.076;9.118;2023-07-31T06:09:33;13.00;99.90
8067;DHT22;4076;48.076;9.118;2023-07-31T06:11:58;12.90;99.90
8067;DHT22;4076;48.076;9.118;2023-07-31T06:14:24;12.90;99.90
8067;DHT22;4076;48.076;9.118;2023-07-31T06:16:49;13.00;99.90
8067;DHT22;4076;48.076;9.118;2023-07-31T06:19:15;13.00;99.90
8067;DHT22;4076;48.076;9.118;2023-07-31T06:21:40;13.00;99.90
8067;DHT22;4076;48.076;9.118;2023-07-31T06:24:08;13.10;99.90
8067;DHT22;4076;48.076;9.118;2023-07-31T06:26:34;13.30;99.90
8067;DHT22;4076;48.076;9.118;2023-07-31T06:29:00;13.40;99.90
8067;DHT22;4076;48.076;9.118;2023-07-31T06:31:25;13.40;99.90
8067;DHT22;4076;48.076;9.118;2023-07-31T06:33:51;13.50;99.90
8067;DHT22;4076;48.076;9.118;2023-07-31T06:36:17;13.50;99.90
8067;DHT22;4076;48.076;9.118;2023-07-31T06:38:43;13.60;99.90
8067;DHT22;4076;48.076;9.118;2023-07-31T06:41:09;13.70;99.90
8067;DHT22;4076;48.076;9.118;2023-07-31T06:43:36;13.70;99.90
8067;DHT22;4076;48.076;9.118;2023-07-31T06:46:05;13.80;99.90
8067;DHT22;4076;48.076;9.118;2023-07-31T06:48:32;13.90;99.90
8067;DHT22;4076;48.076;9.118;2023-07-31T06:50:58;14.00;99.90
8067;DHT22;4076;48.076;9.118;2023-07-31T06:53:23;14.30;99.90
8067;DHT22;4076;48.076;9.118;2023-07-31T06:55:49;14.60;99.90
8067;DHT22;4076;48.076;9.118;2023-07-31T06:58:17;14.90;99.90
8067;DHT22;4076;48.076;9.118;2023-07-31T07:00:42;15.00;99.90
8067;DHT22;4076;48.076;9.118;2023-07-31T07:03:08;15.20;99.90
8067;DHT22;4076;48.076;9.118;2023-07-31T07:05:33;15.40;99.90
8067;DHT22;4076;48.076;9.118;2023-07-31T07:07:59;15.50;99.90
8067;DHT22;4076;48.076;9.118;2023-07-31T07:10:24;15.80;99.90
8067;DHT22;4076;48.076;9.118;2023-07-31T07:12:50;16.10;99.90
8067;DHT22;4076;48.076;9.118;2023-07-31T07:15:16;16.30;99.90
8067;DHT22;4076;48.076;9.118;2023-07-31T07:17:41;16.60;99.90
8067;DHT22;4076;48.076;9.118;2023-07-31T07:20:08;17.00;99.90
8067;DHT22;4076;48.076;9.118;2023-07-31T07:22:33;17.40;99.90
8067;DHT22;4076;48.076;9.118;2023-07-31T07:24:59;17.80;99.90
8067;DHT22;4076;48.076;9.118;2023-07-31T07:27:24;18.20;99.90
8067;DHT22;4076;48.076;9.118;2023-07-31T07:29:51;18.60;99.90
8067;DHT22;4076;48.076;9.118;2023-07-31T07:32:20;19.10;99.90
8067;DHT22;4076;48.076;9.118;2023-07-31T07:34:47;19.50;99.90
8067;DHT22;4076;48.076;9.118;2023-07-31T07:37:13;19.70;99.90
8067;DHT22;4076;48.076;9.118;2023-07-31T07:39:38;20.00;99.90
8067;DHT22;4076;48.076;9.118;2023-07-31T07:42:04;20.30;99.90
8067;DHT22;4076;48.076;9.118;2023-07-31T07:44:30;20.50;99.90
8067;DHT22;4076;48.076;9.118;2023-07-31T07:46:55;20.50;96.60
8067;DHT22;4076;48.076;9.118;2023-07-31T07:49:21;20.40;97.70
8067;DHT22;4076;48.076;9.118;2023-07-31T07:51:49;20.40;96.80
8067;DHT22;4076;48.076;9.118;2023-07-31T07:54:15;20.70;93.50
8067;DHT22;4076;48.076;9.118;2023-07-31T07:56:42;21.10;92.80
8067;DHT22;4076;48.076;9.118;2023-07-31T07:59:08;21.60;90.90
8067;DHT22;4076;48.076;9.118;2023-07-31T08:01:34;21.60;80.80
8067;DHT22;4076;48.076;9.118;2023-07-31T08:03:59;21.90;81.00
8067;DHT22;4076;48.076;9.118;2023-07-31T08:06:25;22.10;82.00
8067;DHT22;4076;48.076;9.118;2023-07-31T08:08:51;22.30;79.40
8067;DHT22;4076;48.076;9.118;2023-07-31T08:11:16;22.50;77.20
8067;DHT22;4076;48.076;9.118;2023-07-31T08:13:42;23.10;78.20
8067;DHT22;4076;48.076;9.118;2023-07-31T08:51:50;30.30;44.30
8067;DHT22;4076;48.076;9.118;2023-07-31T08:54:16;34.00;36.10
8067;DHT22;4076;48.076;9.118;2023-07-31T08:56:42;34.50;35.80
8067;DHT22;4076;48.076;9.118;2023-07-31T08:59:08;35.00;34.70
8067;DHT22;4076;48.076;9.118;2023-07-31T09:01:39;34.70;34.90
8067;DHT22;4076;48.076;9.118;2023-07-31T09:04:09;34.10;35.00
8067;DHT22;4076;48.076;9.118;2023-07-31T09:06:35;33.90;35.40
8067;DHT22;4076;48.076;9.118;2023-07-31T09:09:01;33.80;34.90
8067;DHT22;4076;48.076;9.118;2023-07-31T09:11:27;32.90;35.00
8067;DHT22;4076;48.076;9.118;2023-07-31T09:13:53;32.10;35.90
8067;DHT22;4076;48.076;9.118;2023-07-31T09:16:29;31.00;37.10
8067;DHT22;4076;48.076;9.118;2023-07-31T09:18:58;31.00;38.10
8067;DHT22;4076;48.076;9.118;2023-07-31T09:21:24;31.00;37.50
8067;DHT22;4076;48.076;9.118;2023-07-31T09:23:52;30.70;37.30
8067;DHT22;4076;48.076;9.118;2023-07-31T09:28:58;29.60;38.70
8067;DHT22;4076;48.076;9.118;2023-07-31T09:31:33;29.80;38.70
8067;DHT22;4076;48.076;9.118;2023-07-31T09:34:03;31.00;39.40
8067;DHT22;4076;48.076;9.118;2023-07-31T09:36:29;33.30;37.50
8067;DHT22;4076;48.076;9.118;2023-07-31T09:39:02;35.20;34.60
8067;DHT22;4076;48.076;9.118;2023-07-31T09:41:28;37.10;32.70
8067;DHT22;4076;48.076;9.118;2023-07-31T09:43:54;38.50;31.20
8067;DHT22;4076;48.076;9.118;2023-07-31T09:46:21;39.50;30.10
8067;DHT22;4076;48.076;9.118;2023-07-31T09:48:47;40.50;29.00
8067;DHT22;4076;48.076;9.118;2023-07-31T09:51:12;41.00;28.70
8067;DHT22;4076;48.076;9.118;2023-07-31T09:53:38;41.00;28.10
8067;DHT22;4076;48.076;9.118;2023-07-31T09:56:04;40.50;28.30
8067;DHT22;4076;48.076;9.118;2023-07-31T09:58:34;39.00;28.50
8067;DHT22;4076;48.076;9.118;2023-07-31T10:01:02;37.40;29.30
8067;DHT22;4076;48.076;9.118;2023-07-31T10:03:29;35.60;30.30
8067;DHT22;4076;48.076;9.118;2023-07-31T10:05:57;34.10;32.20
8067;DHT22;4076;48.076;9.118;2023-07-31T10:08:27;33.10;33.30
8067;DHT22;4076;48.076;9.118;2023-07-31T10:10:58;32.20;34.30
8067;DHT22;4076;48.076;9.118;2023-07-31T10:13:25;31.10;35.60
8067;DHT22;4076;48.076;9.118;2023-07-31T10:15:53;30.20;37.60
8067;DHT22;4076;48.076;9.118;2023-07-31T10:18:20;29.30;37.40
8067;DHT22;4076;48.076;9.118;2023-07-31T10:20:46;28.00;39.10
8067;DHT22;4076;48.076;9.118;2023-07-31T10:23:12;27.10;40.80
8067;DHT22;4076;48.076;9.118;2023-07-31T10:25:39;26.30;42.80
8067;DHT22;4076;48.076;9.118;2023-07-31T10:28:05;25.90;43.00
8067;DHT22;4076;48.076;9.118;2023-07-31T10:30:33;25.50;44.00
8067;DHT22;4076;48.076;9.118;2023-07-31T10:33:00;25.20;44.30
8067;DHT22;4076;48.076;9.118;2023-07-31T10:35:27;25.50;44.90
8067;DHT22;4076;48.076;9.118;2023-07-31T10:37:53;25.60;44.40
8067;DHT22;4076;48.076;9.118;2023-07-31T10:40:24;25.80;44.50
8067;DHT22;4076;48.076;9.118;2023-07-31T10:42:55;26.20;44.70
8067;DHT22;4076;48.076;9.118;2023-07-31T10:48:06;26.50;43.50
8067;DHT22;4076;48.076;9.118;2023-07-31T10:50:37;26.30;43.40
8067;DHT22;4076;48.076;9.118;2023-07-31T10:53:02;26.10;44.10
8067;DHT22;4076;48.076;9.118;2023-07-31T10:55:35;26.10;44.60
8067;DHT22;4076;48.076;9.118;2023-07-31T10:58:13;26.00;44.80
8067;DHT22;4076;48.076;9.118;2023-07-31T11:00:44;26.30;44.90
8067;DHT22;4076;48.076;9.118;2023-07-31T11:03:10;26.30;44.90
8067;DHT22;4076;48.076;9.118;2023-07-31T11:05:52;26.30;45.30
8067;DHT22;4076;48.076;9.118;2023-07-31T11:08:24;26.40;46.20
8067;DHT22;4076;48.076;9.118;2023-07-31T11:11:04;26.20;44.60
8067;DHT22;4076;48.076;9.118;2023-07-31T11:13:49;26.00;45.10
8067;DHT22;4076;48.076;9.118;2023-07-31T11:16:15;25.70;46.40
8067;DHT22;4076;48.076;9.118;2023-07-31T11:18:45;25.40;46.60
8067;DHT22;4076;48.076;9.118;2023-07-31T11:21:15;25.10;46.60
8067;DHT22;4076;48.076;9.118;2023-07-31T11:23:45;24.70;47.00
8067;DHT22;4076;48.076;9.118;2023-07-31T11:26:11;24.50;47.70
8067;DHT22;4076;48.076;9.118;2023-07-31T11:28:37;24.40;47.80
8067;DHT22;4076;48.076;9.118;2023-07-31T11:31:04;24.30;48.70
8067;DHT22;4076;48.076;9.118;2023-07-31T11:33:30;24.50;48.40
8067;DHT22;4076;48.076;9.118;2023-07-31T11:35:56;24.60;48.10
8067;DHT22;4076;48.076;9.118;2023-07-31T11:38:30;24.50;47.60
8067;DHT22;4076;48.076;9.118;2023-07-31T11:40:57;24.30;47.40
8067;DHT22;4076;48.076;9.118;2023-07-31T11:43:24;24.50;48.60
8067;DHT22;4076;48.076;9.118;2023-07-31T11:45:54;24.80;48.60
8067;DHT22;4076;48.076;9.118;2023-07-31T11:48:26;25.00;47.70
8067;DHT22;4076;48.076;9.118;2023-07-31T11:50:54;25.10;48.00
8067;DHT22;4076;48.076;9.118;2023-07-31T11:53:50;25.30;48.90
8067;DHT22;4076;48.076;9.118;2023-07-31T11:56:17;25.30;48.00
8067;DHT22;4076;48.076;9.118;2023-07-31T11:58:45;25.50;47.90
8067;DHT22;4076;48.076;9.118;2023-07-31T12:01:13;25.80;47.60
8067;DHT22;4076;48.076;9.118;2023-07-31T12:03:39;26.00;46.90
8067;DHT22;4076;48.076;9.118;2023-07-31T12:06:05;26.20;46.20
8067;DHT22;4076;48.076;9.118;2023-07-31T12:08:31;26.30;46.60
8067;DHT22;4076;48.076;9.118;2023-07-31T12:11:03;26.20;46.30
8067;DHT22;4076;48.076;9.118;2023-07-31T12:13:30;25.90;46.30
8067;DHT22;4076;48.076;9.118;2023-07-31T12:15:57;25.80;46.60
8067;DHT22;4076;48.076;9.118;2023-07-31T12:18:26;25.80;46.70
8067;DHT22;4076;48.076;9.118;2023-07-31T12:20:59;25.70;46.70
8067;DHT22;4076;48.076;9.118;2023-07-31T12:23:27;25.80;46.90
8067;DHT22;4076;48.076;9.118;2023-07-31T12:26:16;25.80;47.00
8067;DHT22;4076;48.076;9.118;2023-07-31T12:31:28;25.70;47.10
8067;DHT22;4076;48.076;9.118;2023-07-31T12:33:55;25.60;47.40
8067;DHT22;4076;48.076;9.118;2023-07-31T12:36:23;25.70;47.50
8067;DHT22;4076;48.076;9.118;2023-07-31T12:38:52;25.80;47.30
8067;DHT22;4076;48.076;9.118;2023-07-31T12:41:18;25.90;47.20
8067;DHT22;4076;48.076;9.118;2023-07-31T12:43:44;25.90;48.40
8067;DHT22;4076;48.076;9.118;2023-07-31T12:46:10;25.90;47.10
8067;DHT22;4076;48.076;9.118;2023-07-31T12:48:37;25.80;47.10
8067;DHT22;4076;48.076;9.118;2023-07-31T12:51:03;25.80;47.60
8067;DHT22;4076;48.076;9.118;2023-07-31T12:53:29;25.80;47.30
8067;DHT22;4076;48.076;9.118;2023-07-31T12:55:56;25.70;47.60
8067;DHT22;4076;48.076;9.118;2023-07-31T12:58:21;25.60;47.20
8067;DHT22;4076;48.076;9.118;2023-07-31T13:00:47;25.50;46.60
8067;DHT22;4076;48.076;9.118;2023-07-31T13:03:12;25.20;47.10
8067;DHT22;4076;48.076;9.118;2023-07-31T13:05:38;25.00;47.50
8067;DHT22;4076;48.076;9.118;2023-07-31T13:08:04;25.00;48.10
8067;DHT22;4076;48.076;9.118;2023-07-31T13:10:29;25.10;49.10
8067;DHT22;4076;48.076;9.118;2023-07-31T13:12:55;25.30;48.30
8067;DHT22;4076;48.076;9.118;2023-07-31T13:15:21;25.30;48.40
8067;DHT22;4076;48.076;9.118;2023-07-31T13:17:47;25.30;47.90
8067;DHT22;4076;48.076;9.118;2023-07-31T13:20:13;25.40;48.80
8067;DHT22;4076;48.076;9.118;2023-07-31T13:22:38;25.40;48.60
8067;DHT22;4076;48.076;9.118;2023-07-31T13:25:04;25.50;48.30
8067;DHT22;4076;48.076;9.118;2023-07-31T13:27:30;25.50;47.90
8067;DHT22;4076;48.076;9.118;2023-07-31T13:29:56;25.50;48.40
8067;DHT22;4076;48.076;9.118;2023-07-31T13:32:22;25.60;48.50
8067;DHT22;4076;48.076;9.118;2023-07-31T13:34:48;25.80;49.00
8067;DHT22;4076;48.076;9.118;2023-07-31T13:37:14;25.80;48.70
8067;DHT22;4076;48.076;9.118;2023-07-31T13:39:40;25.90;48.70
8067;DHT22;4076;48.076;9.118;2023-07-31T13:42:07;25.90;48.40
8067;DHT22;4076;48.076;9.118;2023-07-31T13:44:36;26.00;48.40
8067;DHT22;4076;48.076;9.118;2023-07-31T13:47:02;26.00;47.40
8067;DHT22;4076;48.076;9.118;2023-07-31T13:49:28;25.90;47.30
8067;DHT22;4076;48.076;9.118;2023-07-31T13:51:54;25.80;47.70
8067;DHT22;4076;48.076;9.118;2023-07-31T13:54:20;25.80;47.40
8067;DHT22;4076;48.076;9.118;2023-07-31T13:56:45;25.50;47.40
8067;DHT22;4076;48.076;9.118;2023-07-31T13:59:11;25.40;48.50
8067;DHT22;4076;48.076;9.118;2023-07-31T14:01:37;25.30;48.00
8067;DHT22;4076;48.076;9.118;2023-07-31T14:04:03;25.20;48.10
8067;DHT22;4076;48.076;9.118;2023-07-31T14:06:29;25.10;48.90
8067;DHT22;4076;48.076;9.118;2023-07-31T14:08:54;25.00;49.00
8067;DHT22;4076;48.076;9.118;2023-07-31T14:11:22;25.00;48.90
8067;DHT22;4076;48.076;9.118;2023-07-31T14:13:47;25.00;49.60
8067;DHT22;4076;48.076;9.118;2023-07-31T14:16:13;24.80;50.40
8067;DHT22;4076;48.076;9.118;2023-07-31T14:18:39;24.80;50.30
8067;DHT22;4076;48.076;9.118;2023-07-31T14:21:05;24.90;50.20
8067;DHT22;4076;48.076;9.118;2023-07-31T14:23:30;24.80;50.30
8067;DHT22;4076;48.076;9.118;2023-07-31T14:25:56;24.70;49.70
8067;DHT22;4076;48.076;9.118;2023-07-31T14:28:21;24.60;50.00
8067;DHT22;4076;48.076;9.118;2023-07-31T14:30:47;24.60;50.80
8067;DHT22;4076;48.076;9.118;2023-07-31T14:33:12;24.60;50.50
8067;DHT22;4076;48.076;9.118;2023-07-31T14:35:38;24.60;50.50
8067;DHT22;4076;48.076;9.118;2023-07-31T14:38:04;24.60;50.20
8067;DHT22;4076;48.076;9.118;2023-07-31T14:40:29;24.60;49.90
8067;DHT22;4076;48.076;9.118;2023-07-31T14:42:55;24.50;50.50
8067;DHT22;4076;48.076;9.118;2023-07-31T14:45:20;24.30;50.10
8067;DHT22;4076;48.076;9.118;2023-07-31T14:47:46;24.30;50.40
8067;DHT22;4076;48.076;9.118;2023-07-31T14:50:12;24.30;50.90
8067;DHT22;4076;48.076;9.118;2023-07-31T14:52:37;24.30;50.80
8067;DHT22;4076;48.076;9.118;2023-07-31T14:55:03;24.30;50.90
8067;DHT22;4076;48.076;9.118;2023-07-31T14:57:29;24.20;51.00
8067;DHT22;4076;48.076;9.118;2023-07-31T14:59:54;24.10;51.90
8067;DHT22;4076;48.076;9.118;2023-07-31T15:02:20;24.10;51.60
8067;DHT22;4076;48.076;9.118;2023-07-31T15:04:45;24.10;51.70
8067;DHT22;4076;48.076;9.118;2023-07-31T15:07:11;24.20;52.50
8067;DHT22;4076;48.076;9.118;2023-07-31T15:09:39;24.30;51.70
8067;DHT22;4076;48.076;9.118;2023-07-31T15:12:05;24.40;52.00
8067;DHT22;4076;48.076;9.118;2023-07-31T15:14:30;24.50;51.90
8067;DHT22;4076;48.076;9.118;2023-07-31T15:16:56;24.60;51.30
8067;DHT22;4076;48.076;9.118;2023-07-31T15:19:22;24.50;51.00
8067;DHT22;4076;48.076;9.118;2023-07-31T15:21:49;24.50;50.60
8067;DHT22;4076;48.076;9.118;2023-07-31T15:24:14;24.30;50.70
8067;DHT22;4076;48.076;9.118;2023-07-31T15:26:40;24.30;50.30
8067;DHT22;4076;48.076;9.118;2023-07-31T15:29:08;24.20;51.00
8067;DHT22;4076;48.076;9.118;2023-07-31T15:31:41;24.10;51.00
8067;DHT22;4076;48.076;9.118;2023-07-31T15:34:07;24.20;51.50
8067;DHT22;4076;48.076;9.118;2023-07-31T15:36:32;24.20;51.20
8067;DHT22;4076;48.076;9.118;2023-07-31T15:38:58;24.10;51.50
8067;DHT22;4076;48.076;9.118;2023-07-31T15:41:24;24.00;51.50
8067;DHT22;4076;48.076;9.118;2023-07-31T15:43:50;23.90;52.00
8067;DHT22;4076;48.076;9.118;2023-07-31T15:46:17;23.80;51.90
8067;DHT22;4076;48.076;9.118;2023-07-31T15:48:43;23.80;52.00
8067;DHT22;4076;48.076;9.118;2023-07-31T15:51:09;23.80;53.10
8067;DHT22;4076;48.076;9.118;2023-07-31T15:53:34;23.80;52.10
8067;DHT22;4076;48.076;9.118;2023-07-31T15:56:00;23.70;52.00
8067;DHT22;4076;48.076;9.118;2023-07-31T15:58:26;23.70;51.30
8067;DHT22;4076;48.076;9.118;2023-07-31T16:00:53;23.60;51.90
8067;DHT22;4076;48.076;9.118;2023-07-31T16:03:18;23.60;52.30
8067;DHT22;4076;48.076;9.118;2023-07-31T16:05:45;23.60;51.70
8067;DHT22;4076;48.076;9.118;2023-07-31T16:08:10;23.60;51.50
8067;DHT22;4076;48.076;9.118;2023-07-31T16:10:36;23.60;51.40
8067;DHT22;4076;48.076;9.118;2023-07-31T16:13:01;23.60;51.50
8067;DHT22;4076;48.076;9.118;2023-07-31T16:15:28;23.50;52.60
8067;DHT22;4076;48.076;9.118;2023-07-31T16:17:55;23.60;53.30
8067;DHT22;4076;48.076;9.118;2023-07-31T16:20:20;23.60;53.10
8067;DHT22;4076;48.076;9.118;2023-07-31T16:22:46;23.70;53.00
8067;DHT22;4076;48.076;9.118;2023-07-31T16:25:12;23.60;52.90
8067;DHT22;4076;48.076;9.118;2023-07-31T16:27:37;23.60;53.30
8067;DHT22;4076;48.076;9.118;2023-07-31T16:30:03;23.50;52.10
8067;DHT22;4076;48.076;9.118;2023-07-31T16:32:29;23.40;52.70
8067;DHT22;4076;48.076;9.118;2023-07-31T16:34:55;23.30;53.50
8067;DHT22;4076;48.076;9.118;2023-07-31T16:37:21;23.20;54.10
8067;DHT22;4076;48.076;9.118;2023-07-31T16:39:47;23.10;54.10
8067;DHT22;4076;48.076;9.118;2023-07-31T16:42:14;23.00;54.10
8067;DHT22;4076;48.076;9.118;2023-07-31T16:44:39;23.00;54.30
8067;DHT22;4076;48.076;9.118;2023-07-31T16:47:05;22.90;54.70